Terminal Aerodrome Forecast
Issued by NWS Quad Cities IA IL

Home | Current Version | Previous Version | Text Only | Print | Product List | Glossary On
Versions: 1 2 3 4 5 6 7 8 9 10 11 12 13 14 15 16 17 18 19 20 21 22 23 24 25 26 27 28 29 30 31
000
FTUS43 KDVN 291400 CCA
TAFDBQ
TAF COR
KDBQ 291429Z 2914/3012 33017G26KT 5SM BR BKN010
     FM291600 32021G31KT P6SM OVC012
     FM292300 32014KT P6SM SCT030=

USA.gov is the U.S. government's official web portal to all federal, state and local government web resources and services.